sensor_id;sensor_type;location;lat;lon;timestamp;P1;durP1;ratioP1;P2;durP2;ratioP2
17854;SDS011;9053;53.358;6.382;2023-03-14T00:02:14;14.93;;;4.40;;
17854;SDS011;9053;53.358;6.382;2023-03-14T00:04:44;16.53;;;4.40;;
17854;SDS011;9053;53.358;6.382;2023-03-14T00:07:14;18.57;;;4.50;;
17854;SDS011;9053;53.358;6.382;2023-03-14T00:09:44;17.03;;;3.93;;
17854;SDS011;9053;53.358;6.382;2023-03-14T00:12:16;22.57;;;4.63;;
17854;SDS011;9053;53.358;6.382;2023-03-14T00:14:46;15.50;;;4.63;;
17854;SDS011;9053;53.358;6.382;2023-03-14T00:17:16;16.53;;;4.40;;
17854;SDS011;9053;53.358;6.382;2023-03-14T00:19:46;16.40;;;4.83;;
17854;SDS011;9053;53.358;6.382;2023-03-14T00:22:18;13.83;;;4.27;;
17854;SDS011;9053;53.358;6.382;2023-03-14T00:24:48;19.23;;;4.73;;
17854;SDS011;9053;53.358;6.382;2023-03-14T00:27:20;20.60;;;4.30;;
17854;SDS011;9053;53.358;6.382;2023-03-14T00:29:53;20.73;;;4.17;;
17854;SDS011;9053;53.358;6.382;2023-03-14T00:32:23;14.73;;;4.27;;
17854;SDS011;9053;53.358;6.382;2023-03-14T00:34:53;18.60;;;4.83;;
17854;SDS011;9053;53.358;6.382;2023-03-14T00:37:23;20.00;;;4.30;;
17854;SDS011;9053;53.358;6.382;2023-03-14T00:39:53;17.50;;;4.63;;
17854;SDS011;9053;53.358;6.382;2023-03-14T00:42:25;18.93;;;4.20;;
17854;SDS011;9053;53.358;6.382;2023-03-14T00:44:57;16.07;;;4.20;;
17854;SDS011;9053;53.358;6.382;2023-03-14T00:47:27;18.53;;;4.70;;
17854;SDS011;9053;53.358;6.382;2023-03-14T00:49:57;16.63;;;4.27;;
17854;SDS011;9053;53.358;6.382;2023-03-14T00:52:26;13.33;;;3.87;;
17854;SDS011;9053;53.358;6.382;2023-03-14T00:54:56;16.90;;;4.30;;
17854;SDS011;9053;53.358;6.382;2023-03-14T00:57:29;16.47;;;4.27;;
17854;SDS011;9053;53.358;6.382;2023-03-14T00:59:58;15.90;;;4.27;;
17854;SDS011;9053;53.358;6.382;2023-03-14T01:02:30;18.50;;;4.83;;
17854;SDS011;9053;53.358;6.382;2023-03-14T01:05:00;15.40;;;4.03;;
17854;SDS011;9053;53.358;6.382;2023-03-14T01:07:30;15.13;;;4.03;;
17854;SDS011;9053;53.358;6.382;2023-03-14T01:10:00;18.03;;;4.57;;
17854;SDS011;9053;53.358;6.382;2023-03-14T01:12:36;13.37;;;4.07;;
17854;SDS011;9053;53.358;6.382;2023-03-14T01:15:07;19.70;;;4.33;;
17854;SDS011;9053;53.358;6.382;2023-03-14T01:17:37;17.87;;;4.30;;
17854;SDS011;9053;53.358;6.382;2023-03-14T01:20:08;12.40;;;3.60;;
17854;SDS011;9053;53.358;6.382;2023-03-14T01:22:40;12.87;;;3.80;;
17854;SDS011;9053;53.358;6.382;2023-03-14T01:25:12;16.87;;;4.43;;
17854;SDS011;9053;53.358;6.382;2023-03-14T01:27:45;14.73;;;3.73;;
17854;SDS011;9053;53.358;6.382;2023-03-14T01:30:15;16.53;;;4.00;;
17854;SDS011;9053;53.358;6.382;2023-03-14T01:32:45;15.27;;;4.03;;
17854;SDS011;9053;53.358;6.382;2023-03-14T01:35:15;15.87;;;3.50;;
17854;SDS011;9053;53.358;6.382;2023-03-14T01:37:45;12.57;;;3.70;;
17854;SDS011;9053;53.358;6.382;2023-03-14T01:40:15;11.37;;;3.70;;
17854;SDS011;9053;53.358;6.382;2023-03-14T01:42:52;14.03;;;3.50;;
17854;SDS011;9053;53.358;6.382;2023-03-14T01:48:34;14.53;;;3.87;;
17854;SDS011;9053;53.358;6.382;2023-03-14T01:51:08;14.20;;;3.87;;
17854;SDS011;9053;53.358;6.382;2023-03-14T01:53:40;14.77;;;3.43;;
17854;SDS011;9053;53.358;6.382;2023-03-14T01:56:17;14.30;;;3.43;;
17854;SDS011;9053;53.358;6.382;2023-03-14T01:58:51;13.33;;;3.40;;
17854;SDS011;9053;53.358;6.382;2023-03-14T02:01:22;13.30;;;3.50;;
17854;SDS011;9053;53.358;6.382;2023-03-14T02:03:56;11.93;;;2.93;;
17854;SDS011;9053;53.358;6.382;2023-03-14T02:06:31;12.57;;;3.33;;
17854;SDS011;9053;53.358;6.382;2023-03-14T02:09:08;13.70;;;3.60;;
17854;SDS011;9053;53.358;6.382;2023-03-14T02:11:37;10.00;;;3.17;;
17854;SDS011;9053;53.358;6.382;2023-03-14T02:14:13;9.73;;;3.27;;
17854;SDS011;9053;53.358;6.382;2023-03-14T02:16:48;10.57;;;3.80;;
17854;SDS011;9053;53.358;6.382;2023-03-14T02:19:20;13.70;;;3.30;;
17854;SDS011;9053;53.358;6.382;2023-03-14T02:21:57;13.10;;;3.10;;
17854;SDS011;9053;53.358;6.382;2023-03-14T02:24:38;14.17;;;2.70;;
17854;SDS011;9053;53.358;6.382;2023-03-14T02:27:16;15.43;;;3.00;;
17854;SDS011;9053;53.358;6.382;2023-03-14T02:29:51;13.00;;;2.83;;
17854;SDS011;9053;53.358;6.382;2023-03-14T02:32:27;14.40;;;3.70;;
17854;SDS011;9053;53.358;6.382;2023-03-14T02:35:02;14.60;;;3.17;;
17854;SDS011;9053;53.358;6.382;2023-03-14T02:37:38;14.40;;;3.50;;
17854;SDS011;9053;53.358;6.382;2023-03-14T02:40:12;15.83;;;2.97;;
17854;SDS011;9053;53.358;6.382;2023-03-14T02:42:44;12.83;;;2.90;;
17854;SDS011;9053;53.358;6.382;2023-03-14T02:48:05;14.77;;;2.90;;
17854;SDS011;9053;53.358;6.382;2023-03-14T02:50:38;8.77;;;2.93;;
17854;SDS011;9053;53.358;6.382;2023-03-14T02:53:08;12.90;;;3.20;;
17854;SDS011;9053;53.358;6.382;2023-03-14T02:55:37;13.87;;;3.17;;
17854;SDS011;9053;53.358;6.382;2023-03-14T02:58:10;14.43;;;3.30;;
17854;SDS011;9053;53.358;6.382;2023-03-14T03:00:41;15.30;;;3.30;;
17854;SDS011;9053;53.358;6.382;2023-03-14T03:03:11;13.43;;;3.17;;
17854;SDS011;9053;53.358;6.382;2023-03-14T03:05:41;15.27;;;2.80;;
17854;SDS011;9053;53.358;6.382;2023-03-14T03:08:11;16.77;;;2.97;;
17854;SDS011;9053;53.358;6.382;2023-03-14T03:10:41;17.00;;;3.67;;
17854;SDS011;9053;53.358;6.382;2023-03-14T03:13:13;13.83;;;3.00;;
17854;SDS011;9053;53.358;6.382;2023-03-14T03:15:44;8.90;;;3.03;;
17854;SDS011;9053;53.358;6.382;2023-03-14T03:18:14;14.07;;;3.80;;
17854;SDS011;9053;53.358;6.382;2023-03-14T03:20:44;14.57;;;3.03;;
17854;SDS011;9053;53.358;6.382;2023-03-14T03:23:14;13.50;;;3.50;;
17854;SDS011;9053;53.358;6.382;2023-03-14T03:25:47;10.43;;;3.60;;
17854;SDS011;9053;53.358;6.382;2023-03-14T03:28:20;10.93;;;3.60;;
17854;SDS011;9053;53.358;6.382;2023-03-14T03:30:50;15.60;;;3.70;;
17854;SDS011;9053;53.358;6.382;2023-03-14T03:33:21;12.03;;;3.93;;
17854;SDS011;9053;53.358;6.382;2023-03-14T03:35:52;14.20;;;4.50;;
17854;SDS011;9053;53.358;6.382;2023-03-14T03:38:22;15.97;;;4.40;;
17854;SDS011;9053;53.358;6.382;2023-03-14T03:40:51;14.73;;;4.30;;
17854;SDS011;9053;53.358;6.382;2023-03-14T03:43:26;13.43;;;3.73;;
17854;SDS011;9053;53.358;6.382;2023-03-14T03:45:56;15.07;;;4.20;;
17854;SDS011;9053;53.358;6.382;2023-03-14T03:48:26;15.50;;;4.03;;
17854;SDS011;9053;53.358;6.382;2023-03-14T03:50:56;14.57;;;4.27;;
17854;SDS011;9053;53.358;6.382;2023-03-14T03:53:25;17.47;;;3.87;;
17854;SDS011;9053;53.358;6.382;2023-03-14T03:55:59;13.00;;;4.10;;
17854;SDS011;9053;53.358;6.382;2023-03-14T03:58:31;15.93;;;4.37;;
17854;SDS011;9053;53.358;6.382;2023-03-14T04:01:01;21.17;;;4.63;;
17854;SDS011;9053;53.358;6.382;2023-03-14T04:03:31;18.53;;;4.63;;
17854;SDS011;9053;53.358;6.382;2023-03-14T04:06:02;21.33;;;4.73;;
17854;SDS011;9053;53.358;6.382;2023-03-14T04:08:33;19.40;;;5.10;;
17854;SDS011;9053;53.358;6.382;2023-03-14T04:11:03;19.33;;;4.43;;
17854;SDS011;9053;53.358;6.382;2023-03-14T04:13:36;16.90;;;4.50;;
17854;SDS011;9053;53.358;6.382;2023-03-14T04:16:09;17.80;;;4.33;;
17854;SDS011;9053;53.358;6.382;2023-03-14T04:18:43;23.60;;;5.33;;
17854;SDS011;9053;53.358;6.382;2023-03-14T04:21:13;15.90;;;4.93;;
17854;SDS011;9053;53.358;6.382;2023-03-14T04:23:44;19.07;;;4.23;;
17854;SDS011;9053;53.358;6.382;2023-03-14T04:26:14;18.07;;;4.97;;
17854;SDS011;9053;53.358;6.382;2023-03-14T04:28:46;23.60;;;5.13;;
17854;SDS011;9053;53.358;6.382;2023-03-14T04:31:17;21.63;;;4.90;;
17854;SDS011;9053;53.358;6.382;2023-03-14T04:33:49;23.83;;;4.93;;
17854;SDS011;9053;53.358;6.382;2023-03-14T04:36:18;22.50;;;5.57;;
17854;SDS011;9053;53.358;6.382;2023-03-14T04:38:48;22.40;;;4.90;;
17854;SDS011;9053;53.358;6.382;2023-03-14T04:41:18;20.77;;;5.93;;
17854;SDS011;9053;53.358;6.382;2023-03-14T04:43:50;20.27;;;5.10;;
17854;SDS011;9053;53.358;6.382;2023-03-14T04:46:20;24.33;;;5.20;;
17854;SDS011;9053;53.358;6.382;2023-03-14T04:48:50;22.20;;;5.30;;
17854;SDS011;9053;53.358;6.382;2023-03-14T04:51:22;19.23;;;4.80;;
17854;SDS011;9053;53.358;6.382;2023-03-14T04:53:53;21.13;;;5.70;;
17854;SDS011;9053;53.358;6.382;2023-03-14T04:56:23;22.20;;;5.77;;
17854;SDS011;9053;53.358;6.382;2023-03-14T04:58:56;22.10;;;5.83;;
17854;SDS011;9053;53.358;6.382;2023-03-14T05:01:26;18.57;;;5.37;;
17854;SDS011;9053;53.358;6.382;2023-03-14T05:03:59;17.10;;;5.27;;
17854;SDS011;9053;53.358;6.382;2023-03-14T05:06:29;17.90;;;5.37;;
17854;SDS011;9053;53.358;6.382;2023-03-14T05:08:59;19.77;;;5.13;;
17854;SDS011;9053;53.358;6.382;2023-03-14T05:11:31;17.37;;;5.50;;
17854;SDS011;9053;53.358;6.382;2023-03-14T05:14:05;20.27;;;5.43;;
17854;SDS011;9053;53.358;6.382;2023-03-14T05:16:35;17.33;;;5.33;;
17854;SDS011;9053;53.358;6.382;2023-03-14T05:19:05;19.10;;;5.23;;
17854;SDS011;9053;53.358;6.382;2023-03-14T05:21:36;13.67;;;4.67;;
17854;SDS011;9053;53.358;6.382;2023-03-14T05:24:06;14.97;;;5.17;;
17854;SDS011;9053;53.358;6.382;2023-03-14T05:26:36;16.97;;;5.27;;
17854;SDS011;9053;53.358;6.382;2023-03-14T05:29:13;15.20;;;4.80;;
17854;SDS011;9053;53.358;6.382;2023-03-14T05:31:44;15.60;;;4.87;;
17854;SDS011;9053;53.358;6.382;2023-03-14T05:34:14;12.37;;;4.57;;
17854;SDS011;9053;53.358;6.382;2023-03-14T05:36:44;8.70;;;4.10;;
17854;SDS011;9053;53.358;6.382;2023-03-14T05:39:14;11.93;;;4.73;;
17854;SDS011;9053;53.358;6.382;2023-03-14T05:41:46;12.07;;;4.30;;
17854;SDS011;9053;53.358;6.382;2023-03-14T05:44:20;8.23;;;4.03;;
17854;SDS011;9053;53.358;6.382;2023-03-14T05:46:52;9.77;;;3.60;;
17854;SDS011;9053;53.358;6.382;2023-03-14T05:49:22;7.37;;;3.70;;
17854;SDS011;9053;53.358;6.382;2023-03-14T05:51:52;10.50;;;3.87;;
17854;SDS011;9053;53.358;6.382;2023-03-14T05:54:21;8.80;;;4.27;;
17854;SDS011;9053;53.358;6.382;2023-03-14T05:56:51;9.77;;;3.83;;
17854;SDS011;9053;53.358;6.382;2023-03-14T05:59:24;10.23;;;3.60;;
17854;SDS011;9053;53.358;6.382;2023-03-14T06:01:54;8.00;;;1.70;;
17854;SDS011;9053;53.358;6.382;2023-03-14T06:04:25;8.50;;;2.07;;
17854;SDS011;9053;53.358;6.382;2023-03-14T06:06:55;13.90;;;2.57;;
17854;SDS011;9053;53.358;6.382;2023-03-14T06:09:27;14.93;;;2.90;;
17854;SDS011;9053;53.358;6.382;2023-03-14T06:11:57;15.77;;;3.00;;
17854;SDS011;9053;53.358;6.382;2023-03-14T06:14:32;18.07;;;3.20;;
17854;SDS011;9053;53.358;6.382;2023-03-14T06:17:02;18.50;;;3.60;;
17854;SDS011;9053;53.358;6.382;2023-03-14T06:19:34;16.20;;;3.17;;
17854;SDS011;9053;53.358;6.382;2023-03-14T06:22:05;11.50;;;2.73;;
17854;SDS011;9053;53.358;6.382;2023-03-14T06:24:35;17.50;;;2.50;;
17854;SDS011;9053;53.358;6.382;2023-03-14T06:27:04;9.90;;;2.67;;
17854;SDS011;9053;53.358;6.382;2023-03-14T06:29:40;14.50;;;2.73;;
17854;SDS011;9053;53.358;6.382;2023-03-14T06:32:09;14.57;;;2.70;;
17854;SDS011;9053;53.358;6.382;2023-03-14T06:34:43;12.07;;;2.37;;
17854;SDS011;9053;53.358;6.382;2023-03-14T06:37:15;14.00;;;2.57;;
17854;SDS011;9053;53.358;6.382;2023-03-14T06:39:47;14.90;;;2.30;;
17854;SDS011;9053;53.358;6.382;2023-03-14T06:42:17;6.97;;;1.93;;
17854;SDS011;9053;53.358;6.382;2023-03-14T06:44:49;12.60;;;1.60;;
17854;SDS011;9053;53.358;6.382;2023-03-14T06:47:19;7.87;;;1.80;;
17854;SDS011;9053;53.358;6.382;2023-03-14T06:49:49;8.70;;;1.83;;
17854;SDS011;9053;53.358;6.382;2023-03-14T06:52:19;5.20;;;1.57;;
17854;SDS011;9053;53.358;6.382;2023-03-14T06:54:49;8.67;;;1.50;;
17854;SDS011;9053;53.358;6.382;2023-03-14T06:57:18;4.10;;;1.23;;
17854;SDS011;9053;53.358;6.382;2023-03-14T06:59:51;5.77;;;1.77;;
17854;SDS011;9053;53.358;6.382;2023-03-14T07:02:20;5.47;;;1.40;;
17854;SDS011;9053;53.358;6.382;2023-03-14T07:05:07;5.37;;;1.40;;
17854;SDS011;9053;53.358;6.382;2023-03-14T07:07:38;3.83;;;1.20;;
17854;SDS011;9053;53.358;6.382;2023-03-14T07:10:08;6.67;;;1.47;;
17854;SDS011;9053;53.358;6.382;2023-03-14T07:12:39;4.93;;;1.30;;
17854;SDS011;9053;53.358;6.382;2023-03-14T07:15:16;6.43;;;1.27;;
17854;SDS011;9053;53.358;6.382;2023-03-14T07:17:46;8.30;;;1.27;;
17854;SDS011;9053;53.358;6.382;2023-03-14T07:20:17;8.30;;;1.90;;
17854;SDS011;9053;53.358;6.382;2023-03-14T07:22:47;3.50;;;1.20;;
17854;SDS011;9053;53.358;6.382;2023-03-14T07:25:19;3.83;;;1.60;;
17854;SDS011;9053;53.358;6.382;2023-03-14T07:27:49;3.07;;;1.30;;
17854;SDS011;9053;53.358;6.382;2023-03-14T07:30:21;8.00;;;2.30;;
17854;SDS011;9053;53.358;6.382;2023-03-14T07:32:53;5.20;;;1.40;;
17854;SDS011;9053;53.358;6.382;2023-03-14T07:35:23;5.13;;;1.43;;
17854;SDS011;9053;53.358;6.382;2023-03-14T07:37:52;8.07;;;1.47;;
17854;SDS011;9053;53.358;6.382;2023-03-14T07:40:22;7.10;;;1.87;;
17854;SDS011;9053;53.358;6.382;2023-03-14T07:42:52;6.30;;;1.70;;
17854;SDS011;9053;53.358;6.382;2023-03-14T07:45:25;5.70;;;1.33;;
17854;SDS011;9053;53.358;6.382;2023-03-14T07:47:55;7.50;;;1.67;;
17854;SDS011;9053;53.358;6.382;2023-03-14T07:50:25;4.67;;;1.70;;
17854;SDS011;9053;53.358;6.382;2023-03-14T07:52:55;6.23;;;1.60;;
17854;SDS011;9053;53.358;6.382;2023-03-14T07:55:25;9.17;;;1.57;;
17854;SDS011;9053;53.358;6.382;2023-03-14T07:57:54;9.67;;;1.80;;
17854;SDS011;9053;53.358;6.382;2023-03-14T08:00:27;9.97;;;1.80;;
17854;SDS011;9053;53.358;6.382;2023-03-14T08:02:57;7.73;;;1.83;;
17854;SDS011;9053;53.358;6.382;2023-03-14T08:05:27;5.77;;;1.30;;
17854;SDS011;9053;53.358;6.382;2023-03-14T08:07:57;10.80;;;2.10;;
17854;SDS011;9053;53.358;6.382;2023-03-14T08:10:34;5.97;;;1.57;;
17854;SDS011;9053;53.358;6.382;2023-03-14T08:13:04;5.47;;;1.70;;
17854;SDS011;9053;53.358;6.382;2023-03-14T08:15:37;10.00;;;1.80;;
17854;SDS011;9053;53.358;6.382;2023-03-14T08:18:07;7.70;;;1.70;;
17854;SDS011;9053;53.358;6.382;2023-03-14T08:20:37;8.93;;;1.90;;
17854;SDS011;9053;53.358;6.382;2023-03-14T08:23:07;11.30;;;2.60;;
17854;SDS011;9053;53.358;6.382;2023-03-14T08:25:37;5.93;;;1.93;;
17854;SDS011;9053;53.358;6.382;2023-03-14T08:28:07;9.43;;;2.83;;
17854;SDS011;9053;53.358;6.382;2023-03-14T08:30:40;12.50;;;2.43;;
17854;SDS011;9053;53.358;6.382;2023-03-14T08:33:13;12.33;;;3.43;;
17854;SDS011;9053;53.358;6.382;2023-03-14T08:35:43;21.53;;;2.90;;
17854;SDS011;9053;53.358;6.382;2023-03-14T08:38:13;11.07;;;3.60;;
17854;SDS011;9053;53.358;6.382;2023-03-14T08:40:43;13.30;;;3.20;;
17854;SDS011;9053;53.358;6.382;2023-03-14T08:43:13;12.43;;;3.33;;
17854;SDS011;9053;53.358;6.382;2023-03-14T08:45:45;13.57;;;3.07;;
17854;SDS011;9053;53.358;6.382;2023-03-14T08:48:15;16.90;;;3.20;;
17854;SDS011;9053;53.358;6.382;2023-03-14T08:50:45;15.03;;;2.80;;
17854;SDS011;9053;53.358;6.382;2023-03-14T08:53:16;15.30;;;3.30;;
17854;SDS011;9053;53.358;6.382;2023-03-14T08:55:47;18.63;;;3.23;;
17854;SDS011;9053;53.358;6.382;2023-03-14T08:58:21;16.60;;;3.50;;
17854;SDS011;9053;53.358;6.382;2023-03-14T09:00:53;17.53;;;3.80;;
17854;SDS011;9053;53.358;6.382;2023-03-14T09:03:24;15.47;;;3.40;;
17854;SDS011;9053;53.358;6.382;2023-03-14T09:05:55;12.63;;;3.43;;
17854;SDS011;9053;53.358;6.382;2023-03-14T09:08:24;16.20;;;3.80;;
17854;SDS011;9053;53.358;6.382;2023-03-14T09:10:54;18.57;;;3.30;;
17854;SDS011;9053;53.358;6.382;2023-03-14T09:13:25;20.70;;;3.80;;
17854;SDS011;9053;53.358;6.382;2023-03-14T09:15:57;18.50;;;3.13;;
17854;SDS011;9053;53.358;6.382;2023-03-14T09:18:27;12.37;;;3.23;;
17854;SDS011;9053;53.358;6.382;2023-03-14T09:20:57;15.23;;;2.80;;
17854;SDS011;9053;53.358;6.382;2023-03-14T09:23:27;14.57;;;2.70;;
17854;SDS011;9053;53.358;6.382;2023-03-14T09:25:58;13.20;;;3.03;;
17854;SDS011;9053;53.358;6.382;2023-03-14T09:28:28;15.03;;;2.90;;
17854;SDS011;9053;53.358;6.382;2023-03-14T09:31:01;17.43;;;3.10;;
17854;SDS011;9053;53.358;6.382;2023-03-14T09:33:35;23.60;;;4.33;;
17854;SDS011;9053;53.358;6.382;2023-03-14T09:36:07;17.60;;;3.30;;
17854;SDS011;9053;53.358;6.382;2023-03-14T09:38:38;21.23;;;4.17;;
17854;SDS011;9053;53.358;6.382;2023-03-14T09:41:13;15.87;;;4.13;;
17854;SDS011;9053;53.358;6.382;2023-03-14T09:43:46;12.57;;;3.30;;
17854;SDS011;9053;53.358;6.382;2023-03-14T09:46:20;16.23;;;3.23;;
17854;SDS011;9053;53.358;6.382;2023-03-14T09:48:51;17.73;;;3.20;;
17854;SDS011;9053;53.358;6.382;2023-03-14T09:51:21;20.33;;;4.20;;
17854;SDS011;9053;53.358;6.382;2023-03-14T09:53:50;13.17;;;3.10;;
17854;SDS011;9053;53.358;6.382;2023-03-14T09:56:21;27.17;;;3.80;;
17854;SDS011;9053;53.358;6.382;2023-03-14T09:58:54;17.93;;;3.73;;
17854;SDS011;9053;53.358;6.382;2023-03-14T10:01:30;15.67;;;3.37;;
17854;SDS011;9053;53.358;6.382;2023-03-14T10:04:02;16.73;;;2.93;;
17854;SDS011;9053;53.358;6.382;2023-03-14T10:06:40;14.17;;;2.67;;
17854;SDS011;9053;53.358;6.382;2023-03-14T10:09:10;8.67;;;3.43;;
17854;SDS011;9053;53.358;6.382;2023-03-14T10:11:53;10.63;;;2.90;;
17854;SDS011;9053;53.358;6.382;2023-03-14T10:14:34;13.80;;;2.40;;
17854;SDS011;9053;53.358;6.382;2023-03-14T10:17:10;11.53;;;2.70;;
17854;SDS011;9053;53.358;6.382;2023-03-14T10:19:50;11.73;;;2.70;;
17854;SDS011;9053;53.358;6.382;2023-03-14T10:22:22;12.77;;;3.00;;
17854;SDS011;9053;53.358;6.382;2023-03-14T10:24:54;11.87;;;2.40;;
17854;SDS011;9053;53.358;6.382;2023-03-14T10:27:29;11.13;;;2.57;;
17854;SDS011;9053;53.358;6.382;2023-03-14T10:30:05;10.77;;;2.67;;
17854;SDS011;9053;53.358;6.382;2023-03-14T10:33:04;10.33;;;3.03;;
17854;SDS011;9053;53.358;6.382;2023-03-14T10:35:37;10.77;;;2.47;;
17854;SDS011;9053;53.358;6.382;2023-03-14T10:38:10;7.03;;;2.20;;
17854;SDS011;9053;53.358;6.382;2023-03-14T10:40:46;8.10;;;2.10;;
17854;SDS011;9053;53.358;6.382;2023-03-14T10:43:20;7.53;;;2.33;;
17854;SDS011;9053;53.358;6.382;2023-03-14T10:45:54;9.73;;;2.50;;
17854;SDS011;9053;53.358;6.382;2023-03-14T10:48:32;6.63;;;1.97;;
17854;SDS011;9053;53.358;6.382;2023-03-14T10:51:09;8.73;;;2.10;;
17854;SDS011;9053;53.358;6.382;2023-03-14T10:53:41;7.60;;;2.00;;
17854;SDS011;9053;53.358;6.382;2023-03-14T10:56:13;7.27;;;2.00;;
17854;SDS011;9053;53.358;6.382;2023-03-14T10:58:44;7.07;;;2.20;;
17854;SDS011;9053;53.358;6.382;2023-03-14T11:01:25;3.97;;;1.80;;
17854;SDS011;9053;53.358;6.382;2023-03-14T11:04:18;6.47;;;2.50;;
17854;SDS011;9053;53.358;6.382;2023-03-14T11:07:03;5.17;;;1.73;;
17854;SDS011;9053;53.358;6.382;2023-03-14T11:09:42;7.13;;;1.63;;
17854;SDS011;9053;53.358;6.382;2023-03-14T11:12:28;8.97;;;1.90;;
17854;SDS011;9053;53.358;6.382;2023-03-14T11:15:09;4.63;;;1.60;;
17854;SDS011;9053;53.358;6.382;2023-03-14T11:17:46;6.40;;;1.77;;
17854;SDS011;9053;53.358;6.382;2023-03-14T11:20:35;8.53;;;1.60;;
17854;SDS011;9053;53.358;6.382;2023-03-14T11:23:10;6.87;;;1.90;;
17854;SDS011;9053;53.358;6.382;2023-03-14T11:25:44;5.53;;;1.60;;
17854;SDS011;9053;53.358;6.382;2023-03-14T11:28:22;8.03;;;2.20;;
17854;SDS011;9053;53.358;6.382;2023-03-14T11:30:59;5.83;;;1.57;;
17854;SDS011;9053;53.358;6.382;2023-03-14T11:33:44;6.13;;;2.07;;
17854;SDS011;9053;53.358;6.382;2023-03-14T11:36:23;6.90;;;2.10;;
17854;SDS011;9053;53.358;6.382;2023-03-14T11:39:00;6.30;;;1.97;;
17854;SDS011;9053;53.358;6.382;2023-03-14T11:41:37;6.23;;;1.80;;
17854;SDS011;9053;53.358;6.382;2023-03-14T11:44:30;7.83;;;2.23;;
17854;SDS011;9053;53.358;6.382;2023-03-14T11:47:07;7.73;;;2.13;;
17854;SDS011;9053;53.358;6.382;2023-03-14T11:49:42;7.37;;;2.20;;
17854;SDS011;9053;53.358;6.382;2023-03-14T11:52:20;6.50;;;2.20;;
17854;SDS011;9053;53.358;6.382;2023-03-14T11:55:02;9.73;;;1.93;;
17854;SDS011;9053;53.358;6.382;2023-03-14T11:57:37;10.60;;;2.70;;
17854;SDS011;9053;53.358;6.382;2023-03-14T12:00:13;10.37;;;2.43;;
17854;SDS011;9053;53.358;6.382;2023-03-14T12:02:47;8.60;;;3.10;;
17854;SDS011;9053;53.358;6.382;2023-03-14T12:05:34;8.07;;;1.87;;
17854;SDS011;9053;53.358;6.382;2023-03-14T12:11:30;9.07;;;2.57;;
17854;SDS011;9053;53.358;6.382;2023-03-14T12:14:15;15.97;;;2.93;;
17854;SDS011;9053;53.358;6.382;2023-03-14T12:16:48;9.17;;;2.40;;
17854;SDS011;9053;53.358;6.382;2023-03-14T12:25:13;9.93;;;2.00;;
17854;SDS011;9053;53.358;6.382;2023-03-14T12:30:46;11.77;;;2.50;;
17854;SDS011;9053;53.358;6.382;2023-03-14T12:33:20;4.90;;;2.00;;
17854;SDS011;9053;53.358;6.382;2023-03-14T12:36:15;9.80;;;2.10;;
17854;SDS011;9053;53.358;6.382;2023-03-14T12:42:06;4.53;;;1.50;;
17854;SDS011;9053;53.358;6.382;2023-03-14T12:44:49;8.97;;;1.77;;
17854;SDS011;9053;53.358;6.382;2023-03-14T12:50:20;8.27;;;2.13;;
17854;SDS011;9053;53.358;6.382;2023-03-14T12:55:57;7.87;;;1.90;;
17854;SDS011;9053;53.358;6.382;2023-03-14T12:58:38;6.87;;;1.80;;
17854;SDS011;9053;53.358;6.382;2023-03-14T13:01:15;8.63;;;2.27;;
17854;SDS011;9053;53.358;6.382;2023-03-14T13:03:47;8.37;;;1.97;;
17854;SDS011;9053;53.358;6.382;2023-03-14T13:12:29;6.20;;;2.00;;
17854;SDS011;9053;53.358;6.382;2023-03-14T13:15:12;7.03;;;1.87;;
17854;SDS011;9053;53.358;6.382;2023-03-14T13:17:47;8.63;;;2.00;;
17854;SDS011;9053;53.358;6.382;2023-03-14T13:20:19;6.30;;;2.37;;
17854;SDS011;9053;53.358;6.382;2023-03-14T13:22:55;6.60;;;1.83;;
17854;SDS011;9053;53.358;6.382;2023-03-14T13:25:29;7.93;;;1.93;;
17854;SDS011;9053;53.358;6.382;2023-03-14T13:28:01;8.93;;;1.80;;
17854;SDS011;9053;53.358;6.382;2023-03-14T13:30:42;7.30;;;1.93;;
17854;SDS011;9053;53.358;6.382;2023-03-14T13:33:14;9.13;;;2.07;;
17854;SDS011;9053;53.358;6.382;2023-03-14T13:35:45;7.73;;;1.90;;
17854;SDS011;9053;53.358;6.382;2023-03-14T13:38:17;6.87;;;1.97;;
17854;SDS011;9053;53.358;6.382;2023-03-14T13:40:49;7.23;;;1.80;;
17854;SDS011;9053;53.358;6.382;2023-03-14T13:43:26;6.63;;;1.53;;
17854;SDS011;9053;53.358;6.382;2023-03-14T13:46:03;9.17;;;2.03;;
17854;SDS011;9053;53.358;6.382;2023-03-14T13:48:40;9.40;;;1.87;;
17854;SDS011;9053;53.358;6.382;2023-03-14T13:51:13;5.00;;;2.03;;
17854;SDS011;9053;53.358;6.382;2023-03-14T13:53:47;5.63;;;1.77;;
17854;SDS011;9053;53.358;6.382;2023-03-14T13:56:19;9.03;;;2.20;;
17854;SDS011;9053;53.358;6.382;2023-03-14T13:58:50;12.20;;;2.50;;
17854;SDS011;9053;53.358;6.382;2023-03-14T14:01:24;7.20;;;2.37;;
17854;SDS011;9053;53.358;6.382;2023-03-14T14:03:58;11.33;;;2.20;;
17854;SDS011;9053;53.358;6.382;2023-03-14T14:06:36;6.57;;;1.90;;
17854;SDS011;9053;53.358;6.382;2023-03-14T14:09:10;7.90;;;2.43;;
17854;SDS011;9053;53.358;6.382;2023-03-14T14:11:46;15.00;;;2.67;;
17854;SDS011;9053;53.358;6.382;2023-03-14T14:14:40;7.70;;;1.97;;
17854;SDS011;9053;53.358;6.382;2023-03-14T14:17:17;9.13;;;2.33;;
17854;SDS011;9053;53.358;6.382;2023-03-14T14:19:49;6.50;;;2.33;;
17854;SDS011;9053;53.358;6.382;2023-03-14T14:22:20;10.87;;;2.40;;
17854;SDS011;9053;53.358;6.382;2023-03-14T14:24:50;5.90;;;2.37;;
17854;SDS011;9053;53.358;6.382;2023-03-14T14:27:23;5.97;;;2.20;;
17854;SDS011;9053;53.358;6.382;2023-03-14T14:29:59;9.57;;;2.30;;
17854;SDS011;9053;53.358;6.382;2023-03-14T14:32:37;12.03;;;2.57;;
17854;SDS011;9053;53.358;6.382;2023-03-14T14:35:09;9.37;;;2.33;;
17854;SDS011;9053;53.358;6.382;2023-03-14T14:37:52;6.00;;;1.93;;
17854;SDS011;9053;53.358;6.382;2023-03-14T14:40:23;6.13;;;2.07;;
17854;SDS011;9053;53.358;6.382;2023-03-14T14:42:54;5.70;;;1.70;;
17854;SDS011;9053;53.358;6.382;2023-03-14T14:45:33;10.60;;;2.17;;
17854;SDS011;9053;53.358;6.382;2023-03-14T14:48:09;6.30;;;2.13;;
17854;SDS011;9053;53.358;6.382;2023-03-14T14:50:48;7.60;;;1.67;;
17854;SDS011;9053;53.358;6.382;2023-03-14T14:53:21;8.20;;;2.27;;
17854;SDS011;9053;53.358;6.382;2023-03-14T14:55:53;9.87;;;2.43;;
17854;SDS011;9053;53.358;6.382;2023-03-14T14:58:29;7.40;;;1.73;;
17854;SDS011;9053;53.358;6.382;2023-03-14T15:01:05;4.13;;;1.53;;
17854;SDS011;9053;53.358;6.382;2023-03-14T15:03:44;5.73;;;1.60;;
17854;SDS011;9053;53.358;6.382;2023-03-14T15:06:15;5.00;;;1.70;;
17854;SDS011;9053;53.358;6.382;2023-03-14T15:08:47;4.77;;;1.60;;
17854;SDS011;9053;53.358;6.382;2023-03-14T15:11:18;8.77;;;1.67;;
17854;SDS011;9053;53.358;6.382;2023-03-14T15:13:50;7.90;;;1.87;;
17854;SDS011;9053;53.358;6.382;2023-03-14T15:16:20;8.07;;;2.23;;
17854;SDS011;9053;53.358;6.382;2023-03-14T15:18:56;9.60;;;2.13;;
17854;SDS011;9053;53.358;6.382;2023-03-14T15:21:39;7.87;;;2.27;;
17854;SDS011;9053;53.358;6.382;2023-03-14T15:24:09;11.77;;;2.37;;
17854;SDS011;9053;53.358;6.382;2023-03-14T15:26:41;7.90;;;1.97;;
17854;SDS011;9053;53.358;6.382;2023-03-14T15:29:13;7.43;;;1.97;;
17854;SDS011;9053;53.358;6.382;2023-03-14T15:31:46;7.40;;;1.93;;
17854;SDS011;9053;53.358;6.382;2023-03-14T15:34:19;4.23;;;1.97;;
17854;SDS011;9053;53.358;6.382;2023-03-14T15:36:49;6.67;;;1.90;;
17854;SDS011;9053;53.358;6.382;2023-03-14T15:39:19;5.67;;;1.87;;
17854;SDS011;9053;53.358;6.382;2023-03-14T15:41:49;4.70;;;1.67;;
17854;SDS011;9053;53.358;6.382;2023-03-14T15:44:19;7.20;;;2.10;;
17854;SDS011;9053;53.358;6.382;2023-03-14T15:46:52;8.03;;;1.90;;
17854;SDS011;9053;53.358;6.382;2023-03-14T15:49:27;8.67;;;2.53;;
17854;SDS011;9053;53.358;6.382;2023-03-14T15:51:57;4.17;;;1.40;;
17854;SDS011;9053;53.358;6.382;2023-03-14T15:54:28;9.67;;;2.70;;
17854;SDS011;9053;53.358;6.382;2023-03-14T15:56:58;7.33;;;2.33;;
17854;SDS011;9053;53.358;6.382;2023-03-14T15:59:28;8.97;;;2.23;;
17854;SDS011;9053;53.358;6.382;2023-03-14T16:01:58;9.33;;;2.67;;